Jamestown Regional Airport Jamestown US
ICAO: KJMS
IATA: JMS
Category: Medium
Scheduled Services: Yes

Elevation: 1500 ft
TransAlt. 18000 ft.

Airport Communications:
ASOS:118.425
MINNEAPOLIS CNTR:124.2
GRAND FORKS RDO:122.2
CTAF/UNICOM:123

KJMS Zoom In..

Runways:

(A) RW 04 length 5750 ft width 75 ft
---- / hdg 37

(B) RW 13 length 6502 ft width 100 ft
---- / hdg 127

(C) RW 22 length 5750 ft width 75 ft
---- / hdg 217

(D) RW 31 length 6502 ft width 100 ft
ILS 109.30 / hdg 307

Location; KJMS
Day. 15 / Time. 21.56 Zulu
* Altimeter: 30.07
* Temperature: 25° c. 77°f.
* Wind from: 300° Speed 13 kn with Gusts up to 19 kn.
Dewpoint: 11° c.
Visibility: 10 Statute Miles.
Clouds: Clear (automated report).

KJMS 152156Z AUTO 30013G19KT 10SM CLR 25/11 A3007 RMK AO2 SLP176 T02500106


Wind From 300°
Speed 13 kn.

 
 
jpsmedia.com for Web Design worldairports.se 2018   terms of use